Time;durP1;ratioP1;P1;durP2;ratioP2;P2;SDS_P1;SDS_P2;PMS_P1;PMS_P2;Temp;Humidity;BMP_temperature;BMP_pressure;BME280_temperature;BME280_humidity;BME280_pressure;Samples;Min_cycle;Max_cycle;Signal;HPM_P1;HPM_P2
2022/04/04 00:00:58;;;;;;;14.70;8.68;;;;;;;;;;5050920;28;20476;-78
2022/04/04 00:03:24;;;;;;;13.25;9.25;;;;;;;;;;5050779;28;20040;-78
2022/04/04 00:05:53;;;;;;;19.13;10.05;;;;;;;;;;5050961;28;20100;-78
2022/04/04 00:08:19;;;;;;;13.77;9.73;;;;;;;;;;5050337;28;20031;-78
2022/04/04 00:10:45;;;;;;;12.88;9.95;;;;;;;;;;5050593;28;20175;-78
2022/04/04 00:13:11;;;;;;;14.98;10.93;;;;;;;;;;5051595;28;20048;-77
2022/04/04 00:15:37;;;;;;;14.30;10.18;;;;;;;;;;5051213;28;20025;-78
2022/04/04 00:18:13;;;;;;;14.77;10.20;;;;;;;;;;5050754;28;20104;-77
2022/04/04 00:20:39;;;;;;;16.15;10.52;;;;;;;;;;5050622;28;20020;-78
2022/04/04 00:23:12;;;;;;;13.75;10.80;;;;;;;;;;5050244;28;20024;-78
2022/04/04 00:25:46;;;;;;;14.48;10.70;;;;;;;;;;5050111;28;20025;-77
2022/04/04 00:28:13;;;;;;;17.52;11.60;;;;;;;;;;5049028;28;20176;-78
2022/04/04 00:30:41;;;;;;;15.45;10.85;;;;;;;;;;5048631;28;20245;-78
2022/04/04 00:33:08;;;;;;;14.60;10.88;;;;;;;;;;5048417;28;20035;-79
2022/04/04 00:35:34;;;;;;;15.55;10.50;;;;;;;;;;5048904;28;20108;-77
2022/04/04 00:38:02;;;;;;;15.73;10.77;;;;;;;;;;5048787;28;20483;-78
2022/04/04 00:40:29;;;;;;;17.75;10.70;;;;;;;;;;5049624;28;20033;-78
2022/04/04 00:42:55;;;;;;;14.02;10.45;;;;;;;;;;5059485;22;20038;-78
2022/04/04 00:45:20;;;;;;;14.95;10.43;;;;;;;;;;5029299;28;20039;-77
2022/04/04 00:47:46;;;;;;;15.60;11.20;;;;;;;;;;5027740;28;20483;-76
2022/04/04 00:50:13;;;;;;;13.38;10.57;;;;;;;;;;5029294;28;20105;-76
2022/04/04 00:52:39;;;;;;;16.25;11.00;;;;;;;;;;5032985;28;20032;-76
2022/04/04 00:55:10;;;;;;;17.00;11.13;;;;;;;;;;5030857;28;20461;-76
2022/04/04 00:57:37;;;;;;;13.57;10.25;;;;;;;;;;5049476;28;20025;-77
2022/04/04 01:00:09;;;;;;;13.98;10.88;;;;;;;;;;5030917;28;20044;-76
2022/04/04 01:02:36;;;;;;;15.23;11.15;;;;;;;;;;5049468;28;20024;-76
2022/04/04 01:05:04;;;;;;;15.23;10.65;;;;;;;;;;5049558;28;20478;-76
2022/04/04 01:07:31;;;;;;;15.50;10.55;;;;;;;;;;5048507;28;20033;-78
2022/04/04 01:09:56;;;;;;;16.25;10.82;;;;;;;;;;5046268;28;20051;-77
2022/04/04 01:12:22;;;;;;;15.43;10.90;;;;;;;;;;5033720;28;20466;-77
2022/04/04 01:14:48;;;;;;;13.55;10.60;;;;;;;;;;5029722;28;20156;-77
2022/04/04 01:17:27;;;;;;;13.55;10.23;;;;;;;;;;5029522;28;20048;-77
2022/04/04 01:19:55;;;;;;;16.25;11.10;;;;;;;;;;5029951;28;20025;-77
2022/04/04 01:22:21;;;;;;;15.48;11.68;;;;;;;;;;5011837;28;20048;-78
2022/04/04 01:24:47;;;;;;;16.85;11.25;;;;;;;;;;5031989;28;20028;-78
2022/04/04 01:27:13;;;;;;;14.35;10.50;;;;;;;;;;5029406;28;20045;-78
2022/04/04 01:29:39;;;;;;;16.30;10.80;;;;;;;;;;5029677;28;20048;-78
2022/04/04 01:32:06;;;;;;;16.35;11.73;;;;;;;;;;5029383;28;20040;-76
2022/04/04 01:34:32;;;;;;;15.20;11.48;;;;;;;;;;5028883;28;20386;-76
2022/04/04 01:36:58;;;;;;;15.30;10.85;;;;;;;;;;5027862;28;20041;-76
2022/04/04 01:39:25;;;;;;;16.60;11.93;;;;;;;;;;5027182;28;20414;-77
2022/04/04 01:41:51;;;;;;;15.00;11.23;;;;;;;;;;5029413;28;20033;-76
2022/04/04 01:44:17;;;;;;;18.95;11.68;;;;;;;;;;5029172;28;20128;-76
2022/04/04 01:46:43;;;;;;;15.48;11.32;;;;;;;;;;5029246;28;20052;-76
2022/04/04 01:49:10;;;;;;;17.15;11.95;;;;;;;;;;5028852;28;20064;-76
2022/04/04 01:51:37;;;;;;;20.10;11.98;;;;;;;;;;5029278;28;20025;-76
2022/04/04 01:54:04;;;;;;;15.60;12.18;;;;;;;;;;5027164;28;20510;-76
2022/04/04 01:56:30;;;;;;;18.25;12.55;;;;;;;;;;5027185;28;20394;-76
2022/04/04 01:58:56;;;;;;;16.63;11.73;;;;;;;;;;5028615;28;20045;-76
2022/04/04 02:01:27;;;;;;;17.17;12.13;;;;;;;;;;5028971;28;20026;-76
2022/04/04 02:03:56;;;;;;;18.58;12.15;;;;;;;;;;5028883;28;20037;-77
2022/04/04 02:06:22;;;;;;;15.77;12.02;;;;;;;;;;5028912;28;20040;-76
2022/04/04 02:08:49;;;;;;;15.13;11.60;;;;;;;;;;5028729;28;20036;-76
2022/04/04 02:11:16;;;;;;;15.77;11.27;;;;;;;;;;5028736;28;20040;-76
2022/04/04 02:13:43;;;;;;;16.90;11.48;;;;;;;;;;5028892;28;20029;-76
2022/04/04 02:16:09;;;;;;;16.38;10.70;;;;;;;;;;5028625;28;20033;-76
2022/04/04 02:18:35;;;;;;;17.20;12.45;;;;;;;;;;5030836;28;20052;-76
2022/04/04 02:21:03;;;;;;;16.50;11.32;;;;;;;;;;5031054;28;20041;-76
2022/04/04 02:23:29;;;;;;;20.52;12.27;;;;;;;;;;5032497;28;20060;-76
2022/04/04 02:25:57;;;;;;;15.50;11.88;;;;;;;;;;5032744;28;20649;-76
2022/04/04 02:28:24;;;;;;;16.17;11.93;;;;;;;;;;5032451;28;20040;-76
2022/04/04 02:30:50;;;;;;;18.58;13.02;;;;;;;;;;5032599;28;20121;-76
2022/04/04 02:33:17;;;;;;;16.55;11.48;;;;;;;;;;5032274;28;20040;-76
2022/04/04 02:35:46;;;;;;;17.10;12.18;;;;;;;;;;5032306;28;20604;-76
2022/04/04 02:38:13;;;;;;;17.65;12.38;;;;;;;;;;5029998;28;20489;-76
2022/04/04 02:40:40;;;;;;;18.20;12.15;;;;;;;;;;5032437;28;20025;-77
2022/04/04 02:43:07;;;;;;;17.63;13.35;;;;;;;;;;5032163;28;20145;-76
2022/04/04 02:45:33;;;;;;;18.48;13.50;;;;;;;;;;5032188;28;20029;-76
2022/04/04 02:47:59;;;;;;;21.92;13.25;;;;;;;;;;5031880;28;20022;-77
2022/04/04 02:50:25;;;;;;;18.85;13.13;;;;;;;;;;5031943;28;20040;-77
2022/04/04 02:52:51;;;;;;;18.98;13.23;;;;;;;;;;5031899;28;20073;-77
2022/04/04 02:58:02;;;;;;;19.55;13.38;;;;;;;;;;5034099;28;20041;-77
2022/04/04 03:00:27;;;;;;;18.63;13.18;;;;;;;;;;5035341;28;20509;-76
2022/04/04 03:02:55;;;;;;;17.23;13.15;;;;;;;;;;5032685;28;20064;-76
2022/04/04 03:05:21;;;;;;;19.85;13.27;;;;;;;;;;5031958;28;20045;-77
2022/04/04 03:07:48;;;;;;;19.25;13.82;;;;;;;;;;5031762;28;20033;-76
2022/04/04 03:10:14;;;;;;;22.35;14.32;;;;;;;;;;5031492;28;20418;-76
2022/04/04 03:12:44;;;;;;;18.17;13.32;;;;;;;;;;5031607;28;20037;-76
2022/04/04 03:15:21;;;;;;;21.35;14.57;;;;;;;;;;5013476;28;20099;-76
2022/04/04 03:17:50;;;;;;;20.55;13.98;;;;;;;;;;5032017;28;20033;-77
2022/04/04 03:20:18;;;;;;;19.90;13.88;;;;;;;;;;5034232;28;20036;-76
2022/04/04 03:22:48;;;;;;;21.30;14.38;;;;;;;;;;5031515;28;20029;-78
2022/04/04 03:25:15;;;;;;;21.48;15.32;;;;;;;;;;5031436;28;20033;-78
2022/04/04 03:27:42;;;;;;;21.63;14.88;;;;;;;;;;5031576;28;20385;-77
2022/04/04 03:30:11;;;;;;;21.05;14.52;;;;;;;;;;5032801;28;20033;-76
2022/04/04 03:32:37;;;;;;;19.88;14.68;;;;;;;;;;5031684;28;20029;-76
2022/04/04 03:35:04;;;;;;;17.40;13.30;;;;;;;;;;5029814;28;20044;-76
2022/04/04 03:37:35;;;;;;;16.38;12.82;;;;;;;;;;5031228;28;20485;-78
2022/04/04 03:40:02;;;;;;;18.52;12.82;;;;;;;;;;5031524;28;20041;-76
2022/04/04 03:42:28;;;;;;;17.92;13.48;;;;;;;;;;5031554;28;20576;-76
2022/04/04 03:44:54;;;;;;;19.85;14.02;;;;;;;;;;5031751;28;20025;-78
2022/04/04 03:47:21;;;;;;;17.95;12.80;;;;;;;;;;5029528;28;20076;-76
2022/04/04 03:49:47;;;;;;;17.52;13.35;;;;;;;;;;5031382;28;20116;-75
2022/04/04 03:52:14;;;;;;;16.55;12.30;;;;;;;;;;5016980;28;20057;-78
2022/04/04 03:54:40;;;;;;;19.73;12.90;;;;;;;;;;5029517;28;20482;-76
2022/04/04 03:57:06;;;;;;;18.45;13.10;;;;;;;;;;5044658;28;20682;-78
2022/04/04 03:59:32;;;;;;;20.80;13.57;;;;;;;;;;5029540;28;20116;-78
2022/04/04 04:01:58;;;;;;;21.08;14.02;;;;;;;;;;5029759;28;20481;-77
2022/04/04 04:04:24;;;;;;;19.13;13.05;;;;;;;;;;5029795;28;20053;-76
2022/04/04 04:06:51;;;;;;;18.83;14.63;;;;;;;;;;5029220;28;20071;-77
2022/04/04 04:09:18;;;;;;;18.77;13.70;;;;;;;;;;5029942;28;20042;-77
2022/04/04 04:11:44;;;;;;;18.98;13.60;;;;;;;;;;5045398;28;20437;-77
2022/04/04 04:14:10;;;;;;;89.75;44.17;;;;;;;;;;5030920;28;20038;-76
2022/04/04 04:16:35;;;;;;;59.90;32.45;;;;;;;;;;5045761;28;20252;-77
2022/04/04 04:19:01;;;;;;;40.45;23.80;;;;;;;;;;5030497;28;20040;-77
2022/04/04 04:21:27;;;;;;;29.08;18.25;;;;;;;;;;5031464;28;20026;-76
2022/04/04 04:23:54;;;;;;;22.45;15.10;;;;;;;;;;5031385;28;20136;-77
2022/04/04 04:26:21;;;;;;;21.20;14.48;;;;;;;;;;5031386;28;20025;-76
2022/04/04 04:28:47;;;;;;;20.25;13.98;;;;;;;;;;5032128;28;20023;-76
2022/04/04 04:31:16;;;;;;;22.85;14.25;;;;;;;;;;5013106;28;20041;-77
2022/04/04 04:33:43;;;;;;;20.17;13.50;;;;;;;;;;5029860;28;20040;-76
2022/04/04 04:36:09;;;;;;;117.85;50.28;;;;;;;;;;5032274;28;20135;-76
2022/04/04 04:38:35;;;;;;;21.23;14.43;;;;;;;;;;5013045;28;20037;-77
2022/04/04 04:41:01;;;;;;;20.38;14.35;;;;;;;;;;5031700;28;20116;-77
2022/04/04 04:43:27;;;;;;;17.85;13.10;;;;;;;;;;5030540;28;20037;-77
2022/04/04 04:45:53;;;;;;;21.42;13.60;;;;;;;;;;5031783;28;20049;-77
2022/04/04 04:48:19;;;;;;;19.38;13.55;;;;;;;;;;5013754;28;20037;-76
2022/04/04 04:50:47;;;;;;;19.15;12.93;;;;;;;;;;5032699;28;20025;-77
2022/04/04 04:53:12;;;;;;;20.85;13.80;;;;;;;;;;5032086;28;20028;-77
2022/04/04 04:55:38;;;;;;;18.85;12.88;;;;;;;;;;5013693;28;20128;-77
2022/04/04 04:58:04;;;;;;;19.55;13.02;;;;;;;;;;5032037;28;20090;-77
2022/04/04 05:00:30;;;;;;;21.50;13.52;;;;;;;;;;5031405;28;20037;-77
2022/04/04 05:03:39;;;;;;;21.20;13.98;;;;;;;;;;5030063;28;20434;-76
2022/04/04 05:05:46;;;;;;;22.48;13.48;;;;;;;;;;5019155;28;20044;-77
2022/04/04 05:08:12;;;;;;;19.08;12.98;;;;;;;;;;5013757;28;20037;-77
2022/04/04 05:10:38;;;;;;;19.88;13.20;;;;;;;;;;5029427;28;20103;-76
2022/04/04 05:13:04;;;;;;;20.58;14.20;;;;;;;;;;5029393;28;20104;-77
2022/04/04 05:15:30;;;;;;;19.17;13.48;;;;;;;;;;5029263;28;20501;-77
2022/04/04 05:17:55;;;;;;;17.98;12.63;;;;;;;;;;5029347;28;20034;-78
2022/04/04 05:20:21;;;;;;;22.05;14.25;;;;;;;;;;5026401;28;20116;-77
2022/04/04 05:22:47;;;;;;;17.77;12.80;;;;;;;;;;5029585;28;20025;-76
2022/04/04 05:25:14;;;;;;;19.67;13.77;;;;;;;;;;5010791;28;20033;-76
2022/04/04 05:27:43;;;;;;;18.52;12.70;;;;;;;;;;5008581;28;20469;-76
2022/04/04 05:30:09;;;;;;;18.48;12.40;;;;;;;;;;5011462;28;20477;-76
2022/04/04 05:32:36;;;;;;;18.65;12.43;;;;;;;;;;5028660;28;20505;-76
2022/04/04 05:35:06;;;;;;;16.70;11.88;;;;;;;;;;5029475;28;20435;-75
2022/04/04 05:37:32;;;;;;;18.67;12.48;;;;;;;;;;5008703;28;20056;-75
2022/04/04 05:39:58;;;;;;;19.60;14.18;;;;;;;;;;5028409;28;20029;-76
2022/04/04 05:42:24;;;;;;;20.13;14.63;;;;;;;;;;5032208;28;20463;-76
2022/04/04 05:44:50;;;;;;;20.90;14.82;;;;;;;;;;5030783;28;20056;-77
2022/04/04 05:47:19;;;;;;;18.00;11.80;;;;;;;;;;5029498;28;20049;-77
2022/04/04 05:49:48;;;;;;;17.98;13.00;;;;;;;;;;5027990;28;20025;-77
2022/04/04 05:52:16;;;;;;;16.30;10.90;;;;;;;;;;5028846;28;20087;-78
2022/04/04 05:54:54;;;;;;;14.10;10.95;;;;;;;;;;5028320;28;20029;-77
2022/04/04 05:57:31;;;;;;;15.45;10.95;;;;;;;;;;5018164;28;20029;-77
2022/04/04 05:59:57;;;;;;;17.08;10.43;;;;;;;;;;5026939;28;20475;-76
2022/04/04 06:02:26;;;;;;;16.83;11.57;;;;;;;;;;5026304;28;20044;-77
2022/04/04 06:04:52;;;;;;;13.68;10.48;;;;;;;;;;5016253;28;20033;-77
2022/04/04 06:07:19;;;;;;;15.80;10.85;;;;;;;;;;5010532;28;20045;-77
2022/04/04 06:09:45;;;;;;;15.18;10.88;;;;;;;;;;5029317;28;20033;-77
2022/04/04 06:12:12;;;;;;;14.55;9.60;;;;;;;;;;5027990;28;20032;-77
2022/04/04 06:14:38;;;;;;;15.20;10.52;;;;;;;;;;5019099;28;20060;-76
2022/04/04 06:17:05;;;;;;;13.63;9.85;;;;;;;;;;5028458;28;20275;-77
2022/04/04 06:19:35;;;;;;;13.85;9.73;;;;;;;;;;5029290;28;20026;-76
2022/04/04 06:22:04;;;;;;;16.50;10.20;;;;;;;;;;5029667;28;20052;-76
2022/04/04 06:24:31;;;;;;;13.20;9.38;;;;;;;;;;5028231;28;20041;-76
2022/04/04 06:27:01;;;;;;;15.45;10.15;;;;;;;;;;5029188;28;20037;-76
2022/04/04 06:29:28;;;;;;;17.75;11.18;;;;;;;;;;5029795;28;20022;-77
2022/04/04 06:31:55;;;;;;;22.13;15.05;;;;;;;;;;5029618;28;20029;-76
2022/04/04 06:34:21;;;;;;;12.95;8.77;;;;;;;;;;5029228;28;20026;-77
2022/04/04 06:36:47;;;;;;;12.45;9.70;;;;;;;;;;5029182;28;20371;-78
2022/04/04 06:39:14;;;;;;;13.82;9.88;;;;;;;;;;5029208;28;20026;-77
2022/04/04 06:41:40;;;;;;;13.73;9.30;;;;;;;;;;5029280;28;20033;-76
2022/04/04 06:44:06;;;;;;;12.57;8.90;;;;;;;;;;5032346;22;20045;-77
2022/04/04 06:46:36;;;;;;;10.43;7.88;;;;;;;;;;5009082;28;20044;-77
2022/04/04 06:49:07;;;;;;;10.57;8.27;;;;;;;;;;5009109;28;20029;-77
2022/04/04 06:51:34;;;;;;;11.50;8.10;;;;;;;;;;5009576;28;20046;-76
2022/04/04 06:54:00;;;;;;;13.48;8.15;;;;;;;;;;5020202;28;20789;-76
2022/04/04 06:56:26;;;;;;;14.05;7.95;;;;;;;;;;5027774;28;20048;-76
2022/04/04 06:58:52;;;;;;;12.43;8.20;;;;;;;;;;5029143;28;20025;-76
2022/04/04 07:01:19;;;;;;;9.60;7.57;;;;;;;;;;5029183;28;20033;-77
2022/04/04 07:03:45;;;;;;;10.07;7.78;;;;;;;;;;5028681;28;20025;-76
2022/04/04 07:06:12;;;;;;;10.55;8.10;;;;;;;;;;5032241;28;20033;-76
2022/04/04 07:08:38;;;;;;;15.95;7.57;;;;;;;;;;5032491;28;20410;-76
2022/04/04 07:11:05;;;;;;;11.85;7.53;;;;;;;;;;5032209;28;20064;-75
2022/04/04 07:13:32;;;;;;;10.52;7.70;;;;;;;;;;5028158;28;20047;-75
2022/04/04 07:15:58;;;;;;;11.15;8.18;;;;;;;;;;5030674;28;20026;-76
2022/04/04 07:18:24;;;;;;;12.85;8.15;;;;;;;;;;5031270;28;20374;-76
2022/04/04 07:20:50;;;;;;;10.68;7.82;;;;;;;;;;5030331;28;20049;-76
2022/04/04 07:23:16;;;;;;;12.10;8.70;;;;;;;;;;5031848;28;20462;-76
2022/04/04 07:25:41;;;;;;;10.38;7.32;;;;;;;;;;5032034;28;20133;-77
2022/04/04 07:28:08;;;;;;;10.52;7.07;;;;;;;;;;5031884;28;20033;-76
2022/04/04 07:30:34;;;;;;;10.60;6.75;;;;;;;;;;5031831;28;20033;-76
2022/04/04 07:33:03;;;;;;;9.32;6.70;;;;;;;;;;5042767;28;20397;-75
2022/04/04 07:35:29;;;;;;;12.70;7.00;;;;;;;;;;5035194;28;20056;-76
2022/04/04 07:37:55;;;;;;;9.52;6.80;;;;;;;;;;5031716;28;20514;-76
2022/04/04 07:40:21;;;;;;;11.70;6.53;;;;;;;;;;5031686;28;20112;-77
2022/04/04 07:42:48;;;;;;;9.73;6.72;;;;;;;;;;5031270;28;20037;-76
2022/04/04 07:45:15;;;;;;;11.15;6.18;;;;;;;;;;5031414;28;20033;-75
2022/04/04 07:47:42;;;;;;;11.80;7.13;;;;;;;;;;5027717;28;20045;-76
2022/04/04 07:50:10;;;;;;;12.95;8.57;;;;;;;;;;5026937;28;20040;-78
2022/04/04 07:52:37;;;;;;;10.02;6.80;;;;;;;;;;5017258;28;20032;-77
2022/04/04 07:55:04;;;;;;;9.52;6.50;;;;;;;;;;5029695;28;20044;-76
2022/04/04 07:57:30;;;;;;;12.95;6.50;;;;;;;;;;5031242;28;20041;-75
2022/04/04 07:59:56;;;;;;;13.30;6.68;;;;;;;;;;5028925;28;20049;-76
2022/04/04 08:02:22;;;;;;;11.98;6.88;;;;;;;;;;5028784;28;20083;-77
2022/04/04 08:04:48;;;;;;;10.32;6.10;;;;;;;;;;5030939;28;20104;-77
2022/04/04 08:07:15;;;;;;;15.80;10.75;;;;;;;;;;5030448;28;20371;-75
2022/04/04 08:09:41;;;;;;;13.30;9.20;;;;;;;;;;5029560;28;20037;-76
2022/04/04 08:12:07;;;;;;;11.00;6.30;;;;;;;;;;5030837;28;20033;-76
2022/04/04 08:14:36;;;;;;;10.15;5.50;;;;;;;;;;5028715;28;20095;-76
2022/04/04 08:17:03;;;;;;;16.58;5.90;;;;;;;;;;5024806;28;20029;-76
2022/04/04 08:19:29;;;;;;;9.05;5.60;;;;;;;;;;5029200;28;20033;-76
2022/04/04 08:21:56;;;;;;;8.57;5.72;;;;;;;;;;5028091;28;20021;-77
2022/04/04 08:24:22;;;;;;;7.80;5.80;;;;;;;;;;5030756;28;20025;-77
2022/04/04 08:26:49;;;;;;;10.80;5.68;;;;;;;;;;5030618;28;20382;-77
2022/04/04 08:29:15;;;;;;;14.38;5.90;;;;;;;;;;5030728;28;20578;-77
2022/04/04 08:31:41;;;;;;;9.13;5.43;;;;;;;;;;5030755;28;20341;-77
2022/04/04 08:34:07;;;;;;;8.90;5.35;;;;;;;;;;5034386;28;20037;-76
2022/04/04 08:36:33;;;;;;;8.98;5.03;;;;;;;;;;5051649;28;20033;-76
2022/04/04 08:38:59;;;;;;;9.32;5.30;;;;;;;;;;5052263;28;20021;-76
2022/04/04 08:41:29;;;;;;;7.95;4.93;;;;;;;;;;5053199;28;20635;-77
2022/04/04 08:44:00;;;;;;;6.72;4.63;;;;;;;;;;5032755;28;20025;-77
2022/04/04 08:46:26;;;;;;;11.35;4.57;;;;;;;;;;5030274;28;20037;-74
2022/04/04 08:48:55;;;;;;;9.85;5.43;;;;;;;;;;5029864;28;20481;-78
2022/04/04 08:51:22;;;;;;;7.68;5.07;;;;;;;;;;5028454;28;20045;-76
2022/04/04 08:53:47;;;;;;;10.73;4.65;;;;;;;;;;5029882;28;20036;-75
2022/04/04 08:56:13;;;;;;;7.88;4.82;;;;;;;;;;5029969;28;20049;-76
2022/04/04 08:58:39;;;;;;;7.82;5.25;;;;;;;;;;5029386;28;20084;-76
2022/04/04 09:01:05;;;;;;;10.68;7.57;;;;;;;;;;5028961;28;20569;-76
2022/04/04 09:03:31;;;;;;;7.60;5.43;;;;;;;;;;5029759;28;20061;-76
2022/04/04 09:05:59;;;;;;;9.93;5.35;;;;;;;;;;5029245;28;20843;-76
2022/04/04 09:08:28;;;;;;;7.68;4.40;;;;;;;;;;5029556;28;20402;-75
2022/04/04 09:10:56;;;;;;;8.75;4.88;;;;;;;;;;5025834;28;20033;-75
2022/04/04 09:13:27;;;;;;;7.88;4.47;;;;;;;;;;5029693;28;20021;-76
2022/04/04 09:16:05;;;;;;;8.30;5.15;;;;;;;;;;5029195;28;20030;-75
2022/04/04 09:18:37;;;;;;;8.23;4.80;;;;;;;;;;5029887;28;20033;-76
2022/04/04 09:21:04;;;;;;;7.57;5.13;;;;;;;;;;5028167;28;20203;-76
2022/04/04 09:23:54;;;;;;;9.35;4.78;;;;;;;;;;5029217;28;20124;-75
2022/04/04 09:26:37;;;;;;;6.38;4.30;;;;;;;;;;5027850;28;20041;-76
2022/04/04 09:29:12;;;;;;;7.13;4.93;;;;;;;;;;5028790;28;20013;-76
2022/04/04 09:31:54;;;;;;;7.82;5.05;;;;;;;;;;5029626;28;20044;-78
2022/04/04 09:34:22;;;;;;;7.55;4.97;;;;;;;;;;5018040;28;20029;-82
2022/04/04 09:36:48;;;;;;;7.38;4.60;;;;;;;;;;5029898;28;20029;-79
2022/04/04 09:39:15;;;;;;;7.40;4.50;;;;;;;;;;5029311;28;20033;-78
2022/04/04 09:41:41;;;;;;;8.02;4.65;;;;;;;;;;5026594;28;20044;-77
2022/04/04 09:44:09;;;;;;;7.70;4.63;;;;;;;;;;5029216;28;20044;-77
2022/04/04 09:46:44;;;;;;;8.40;4.82;;;;;;;;;;5030161;28;20045;-78
2022/04/04 09:49:16;;;;;;;9.15;5.63;;;;;;;;;;5030215;28;20030;-76
2022/04/04 09:51:50;;;;;;;7.65;5.03;;;;;;;;;;5031446;28;20371;-77
2022/04/04 09:54:17;;;;;;;6.43;4.43;;;;;;;;;;5031612;28;20356;-76
2022/04/04 09:56:46;;;;;;;7.53;4.88;;;;;;;;;;5028019;28;20060;-77
2022/04/04 09:59:15;;;;;;;5.70;4.05;;;;;;;;;;5028734;28;20021;-76
2022/04/04 10:01:45;;;;;;;7.28;4.35;;;;;;;;;;5028911;28;20390;-76
2022/04/04 10:04:12;;;;;;;6.65;4.63;;;;;;;;;;5027379;28;20036;-76
2022/04/04 10:06:39;;;;;;;6.72;4.28;;;;;;;;;;5033738;28;20045;-76
2022/04/04 10:09:06;;;;;;;6.90;3.60;;;;;;;;;;5025336;28;20280;-77
2022/04/04 10:11:35;;;;;;;6.32;4.05;;;;;;;;;;5028810;28;20398;-76
2022/04/04 10:14:02;;;;;;;7.05;4.45;;;;;;;;;;5029695;28;20041;-77
2022/04/04 10:16:28;;;;;;;7.15;4.07;;;;;;;;;;5026645;28;20041;-78
2022/04/04 10:18:55;;;;;;;9.10;4.63;;;;;;;;;;5026494;28;20044;-77
2022/04/04 10:21:21;;;;;;;5.55;3.50;;;;;;;;;;5028698;28;20032;-78
2022/04/04 10:23:50;;;;;;;7.80;3.80;;;;;;;;;;5023469;28;20034;-77
2022/04/04 10:26:20;;;;;;;7.63;3.97;;;;;;;;;;5027706;28;20052;-76
2022/04/04 10:28:47;;;;;;;6.38;3.92;;;;;;;;;;5029089;28;20386;-76
2022/04/04 10:31:18;;;;;;;7.28;3.80;;;;;;;;;;5026931;28;20036;-76
2022/04/04 10:33:46;;;;;;;12.10;3.80;;;;;;;;;;5029025;28;20029;-77
2022/04/04 10:36:16;;;;;;;6.22;3.85;;;;;;;;;;5027595;28;20489;-77
2022/04/04 10:38:44;;;;;;;7.05;3.97;;;;;;;;;;5029526;28;20021;-77
2022/04/04 10:41:13;;;;;;;6.63;4.20;;;;;;;;;;5029515;28;20029;-77
2022/04/04 10:43:43;;;;;;;7.72;4.22;;;;;;;;;;5030637;28;20714;-77
2022/04/04 10:46:11;;;;;;;8.77;4.30;;;;;;;;;;5032518;28;20025;-77
2022/04/04 10:48:42;;;;;;;7.15;4.55;;;;;;;;;;5030482;28;20029;-78
2022/04/04 10:51:17;;;;;;;7.57;4.25;;;;;;;;;;5028679;28;20044;-78
2022/04/04 10:53:51;;;;;;;6.25;4.10;;;;;;;;;;5031189;28;20061;-78
2022/04/04 10:56:19;;;;;;;6.88;4.00;;;;;;;;;;5031496;28;20026;-77
2022/04/04 10:58:46;;;;;;;7.10;3.85;;;;;;;;;;5026978;28;20029;-77
2022/04/04 11:01:18;;;;;;;6.45;3.70;;;;;;;;;;5031676;28;20029;-78
2022/04/04 11:03:50;;;;;;;6.75;4.10;;;;;;;;;;5031975;28;20017;-77
2022/04/04 11:09:12;;;;;;;7.07;3.72;;;;;;;;;;5031531;28;20037;-77
2022/04/04 11:11:44;;;;;;;7.18;3.65;;;;;;;;;;5032220;28;20338;-78
2022/04/04 11:14:39;;;;;;;6.40;4.20;;;;;;;;;;5029244;28;20040;-77
2022/04/04 11:17:07;;;;;;;6.70;4.32;;;;;;;;;;5010890;28;20033;-78
2022/04/04 11:19:54;;;;;;;6.97;4.20;;;;;;;;;;5034715;28;20448;-77
2022/04/04 11:22:22;;;;;;;5.68;3.90;;;;;;;;;;5034222;28;20037;-77
2022/04/04 11:25:05;;;;;;;6.45;3.90;;;;;;;;;;5030408;28;20037;-78
2022/04/04 11:27:35;;;;;;;9.05;3.92;;;;;;;;;;5019485;28;20045;-78
2022/04/04 11:30:06;;;;;;;6.38;4.30;;;;;;;;;;5030858;28;20026;-78
2022/04/04 11:32:34;;;;;;;6.90;3.67;;;;;;;;;;5031175;28;20041;-79
2022/04/04 11:35:06;;;;;;;6.53;3.78;;;;;;;;;;5030996;28;20864;-79
2022/04/04 11:37:41;;;;;;;7.45;3.75;;;;;;;;;;5030463;28;20132;-78
2022/04/04 11:40:08;;;;;;;5.20;3.50;;;;;;;;;;5029910;28;20344;-78
2022/04/04 11:42:42;;;;;;;5.80;3.45;;;;;;;;;;5030276;28;20049;-78
2022/04/04 11:45:09;;;;;;;7.10;3.58;;;;;;;;;;5030762;28;20044;-79
2022/04/04 11:47:39;;;;;;;6.40;3.55;;;;;;;;;;5028128;28;20040;-78
2022/04/04 11:50:06;;;;;;;5.60;3.42;;;;;;;;;;5028148;28;20036;-79
2022/04/04 11:52:49;;;;;;;6.38;3.22;;;;;;;;;;5031168;28;20048;-78
2022/04/04 11:55:17;;;;;;;6.82;3.58;;;;;;;;;;5032114;28;20025;-78
2022/04/04 11:57:46;;;;;;;7.90;3.70;;;;;;;;;;5025830;28;20048;-77
2022/04/04 12:00:18;;;;;;;6.38;3.83;;;;;;;;;;5031844;28;20025;-76
2022/04/04 12:02:46;;;;;;;13.57;9.38;;;;;;;;;;5016590;28;20084;-78
2022/04/04 12:05:14;;;;;;;6.70;3.70;;;;;;;;;;5031990;28;20036;-78
2022/04/04 12:07:44;;;;;;;9.35;3.60;;;;;;;;;;5033751;28;20109;-78
2022/04/04 12:10:11;;;;;;;5.63;3.70;;;;;;;;;;5035749;28;20025;-78
2022/04/04 12:12:38;;;;;;;8.60;3.90;;;;;;;;;;5031862;28;20021;-77
2022/04/04 12:15:04;;;;;;;6.03;3.67;;;;;;;;;;5031608;28;20019;-77
2022/04/04 12:17:30;;;;;;;6.05;3.65;;;;;;;;;;5031471;28;20497;-78
2022/04/04 12:19:56;;;;;;;6.70;3.70;;;;;;;;;;5031530;28;20325;-77
2022/04/04 12:25:11;;;;;;;5.00;3.25;;;;;;;;;;5031263;28;20021;-77
2022/04/04 12:27:54;;;;;;;6.22;3.67;;;;;;;;;;5031304;28;20036;-78
2022/04/04 12:30:28;;;;;;;7.88;3.80;;;;;;;;;;5031308;28;20109;-78
2022/04/04 12:32:54;;;;;;;8.35;3.67;;;;;;;;;;5030661;28;20455;-77
2022/04/04 12:35:20;;;;;;;6.47;3.65;;;;;;;;;;5030919;28;20061;-77
2022/04/04 12:37:46;;;;;;;6.72;3.80;;;;;;;;;;5029274;28;20473;-77
2022/04/04 12:40:15;;;;;;;5.70;3.53;;;;;;;;;;5030925;28;20076;-77
2022/04/04 12:42:42;;;;;;;16.58;9.55;;;;;;;;;;5014997;28;20026;-78
2022/04/04 12:45:08;;;;;;;11.27;6.25;;;;;;;;;;5041351;22;20041;-73
2022/04/04 12:47:34;;;;;;;6.38;3.50;;;;;;;;;;5007683;28;20044;-74
2022/04/04 12:50:14;;;;;;;5.70;3.55;;;;;;;;;;5033138;28;20039;-74
2022/04/04 12:53:00;;;;;;;5.97;3.97;;;;;;;;;;5014576;28;20048;-74
2022/04/04 12:55:27;;;;;;;7.72;4.53;;;;;;;;;;5029574;28;20025;-74
2022/04/04 12:57:56;;;;;;;6.43;3.92;;;;;;;;;;5028796;28;20033;-74
2022/04/04 13:00:35;;;;;;;9.07;3.70;;;;;;;;;;5027249;28;20021;-74
2022/04/04 13:03:24;;;;;;;6.35;3.83;;;;;;;;;;5033102;28;20021;-73
2022/04/04 13:05:55;;;;;;;5.78;3.90;;;;;;;;;;5029740;28;20041;-73
2022/04/04 13:08:23;;;;;;;;;;;;;;;;;;5030615;28;20056;-74
2022/04/04 13:11:10;;;;;;;6.15;4.10;;;;;;;;;;5030896;28;19932;-74
2022/04/04 13:14:00;;;;;;;6.80;3.88;;;;;;;;;;5037409;28;20029;-74
2022/04/04 13:16:30;;;;;;;5.63;4.13;;;;;;;;;;5028158;28;20037;-74
2022/04/04 13:18:57;;;;;;;6.53;4.10;;;;;;;;;;5034778;28;20036;-74
2022/04/04 13:21:23;;;;;;;7.68;4.53;;;;;;;;;;5029599;28;20464;-74
2022/04/04 13:23:54;;;;;;;5.55;3.83;;;;;;;;;;5033778;28;20056;-73
2022/04/04 13:26:20;;;;;;;14.70;5.00;;;;;;;;;;5034412;28;20025;-74
2022/04/04 13:28:46;;;;;;;11.63;4.80;;;;;;;;;;5032013;28;20033;-74
2022/04/04 13:31:12;;;;;;;7.47;4.28;;;;;;;;;;5024550;28;20033;-74
2022/04/04 13:33:38;;;;;;;6.18;4.22;;;;;;;;;;5029682;28;20045;-73
2022/04/04 13:36:04;;;;;;;7.07;4.30;;;;;;;;;;5029009;28;20411;-74
2022/04/04 13:38:31;;;;;;;6.57;4.43;;;;;;;;;;5031493;28;20501;-74
2022/04/04 13:40:57;;;;;;;8.27;4.22;;;;;;;;;;5043719;28;20029;-74
2022/04/04 13:43:26;;;;;;;8.13;4.40;;;;;;;;;;5029709;28;20021;-74
2022/04/04 13:45:53;;;;;;;9.73;4.43;;;;;;;;;;5029712;28;20044;-75
2022/04/04 13:48:19;;;;;;;6.70;4.38;;;;;;;;;;5011395;28;20052;-73
2022/04/04 13:50:45;;;;;;;7.90;5.05;;;;;;;;;;5029743;28;20454;-74
2022/04/04 13:53:11;;;;;;;9.98;4.57;;;;;;;;;;5029640;28;20029;-74
2022/04/04 13:55:38;;;;;;;6.30;4.30;;;;;;;;;;5029632;28;20049;-74
2022/04/04 13:58:03;;;;;;;9.23;4.30;;;;;;;;;;5029882;28;20029;-74
2022/04/04 14:00:29;;;;;;;8.43;4.30;;;;;;;;;;5031094;28;20025;-74
2022/04/04 14:02:55;;;;;;;7.15;5.05;;;;;;;;;;5031404;28;20053;-73
2022/04/04 14:05:21;;;;;;;9.40;5.22;;;;;;;;;;5031645;28;20025;-74
2022/04/04 14:07:47;;;;;;;7.07;4.93;;;;;;;;;;5030165;28;20053;-74
2022/04/04 14:10:13;;;;;;;7.70;5.20;;;;;;;;;;5029756;28;20447;-73
2022/04/04 14:12:39;;;;;;;8.10;5.13;;;;;;;;;;5029421;28;20059;-75
2022/04/04 14:15:07;;;;;;;7.88;5.20;;;;;;;;;;5032580;28;20021;-71
2022/04/04 14:17:36;;;;;;;9.40;5.65;;;;;;;;;;5033056;28;20426;-73
2022/04/04 14:20:03;;;;;;;9.88;5.97;;;;;;;;;;5033714;28;20517;-73
2022/04/04 14:22:30;;;;;;;12.38;5.80;;;;;;;;;;5032657;28;20021;-72
2022/04/04 14:24:57;;;;;;;8.52;5.40;;;;;;;;;;5031546;28;20034;-72
2022/04/04 14:27:25;;;;;;;7.60;4.90;;;;;;;;;;5013039;28;20037;-73
2022/04/04 14:29:51;;;;;;;8.77;4.97;;;;;;;;;;5032261;28;20025;-76
2022/04/04 14:32:17;;;;;;;7.70;5.50;;;;;;;;;;5014540;28;20041;-76
2022/04/04 14:34:44;;;;;;;8.52;5.80;;;;;;;;;;5033211;28;20025;-74
2022/04/04 14:37:11;;;;;;;8.50;5.18;;;;;;;;;;5033018;28;20034;-72
2022/04/04 14:39:38;;;;;;;7.70;5.63;;;;;;;;;;5044178;28;20438;-73
2022/04/04 14:42:06;;;;;;;8.93;5.95;;;;;;;;;;5052852;28;20632;-73
2022/04/04 14:44:31;;;;;;;11.43;6.45;;;;;;;;;;5052800;28;20043;-72